Time;durP1;ratioP1;P1;durP2;ratioP2;P2;SDS_P1;SDS_P2;PMS_P1;PMS_P2;Temp;Humidity;BMP_temperature;BMP_pressure;BME280_temperature;BME280_humidity;BME280_pressure;Samples;Min_cycle;Max_cycle;Signal;HPM_P1;HPM_P2
2022/06/29 00:00:19;;;;;;;5.93;5.20;;;;;;;;;;4902336;29;20872;-54
2022/06/29 00:02:47;;;;;;;5.90;5.40;;;;;;;;;;4917226;29;20488;-55
2022/06/29 00:05:13;;;;;;;6.60;5.80;;;;;;;;;;4920953;29;20475;-55
2022/06/29 00:07:40;;;;;;;6.20;5.60;;;;;;;;;;4927537;29;20454;-56
2022/06/29 00:10:06;;;;;;;6.07;5.47;;;;;;;;;;4903985;29;20464;-54
2022/06/29 00:12:33;;;;;;;4.80;4.33;;;;;;;;;;4902060;29;20658;-55
2022/06/29 00:15:18;;;;;;;5.80;5.30;;;;;;;;;;4924645;29;20492;-54
2022/06/29 00:17:48;;;;;;;5.40;4.90;;;;;;;;;;4912684;29;20435;-55
2022/06/29 00:20:20;;;;;;;5.80;5.17;;;;;;;;;;4905602;29;20547;-55
2022/06/29 00:22:47;;;;;;;5.17;4.77;;;;;;;;;;4918084;29;20993;-55
2022/06/29 00:25:15;;;;;;;5.83;4.77;;;;;;;;;;4906238;29;20459;-55
2022/06/29 00:27:41;;;;;;;5.83;4.90;;;;;;;;;;4917371;29;21374;-55
2022/06/29 00:30:12;;;;;;;5.97;5.37;;;;;;;;;;4912430;29;20436;-55
2022/06/29 00:32:39;;;;;;;5.80;5.30;;;;;;;;;;4910127;29;20533;-54
2022/06/29 00:35:09;;;;;;;4.50;4.10;;;;;;;;;;4908863;29;20437;-54
2022/06/29 00:37:38;;;;;;;5.30;4.80;;;;;;;;;;4914027;29;20447;-55
2022/06/29 00:40:23;;;;;;;5.07;4.67;;;;;;;;;;4921204;29;20511;-53
2022/06/29 00:42:49;;;;;;;5.83;5.33;;;;;;;;;;4916603;29;20495;-56
2022/06/29 00:45:18;;;;;;;5.13;4.63;;;;;;;;;;4923797;29;20440;-56
2022/06/29 00:47:51;;;;;;;14.90;6.30;;;;;;;;;;4922459;29;20459;-55
2022/06/29 00:50:26;;;;;;;8.00;5.57;;;;;;;;;;4925092;29;20561;-55
2022/06/29 00:52:55;;;;;;;5.00;4.60;;;;;;;;;;4922436;29;20435;-55
2022/06/29 00:55:22;;;;;;;5.37;4.97;;;;;;;;;;4925730;29;20498;-56
2022/06/29 00:57:49;;;;;;;7.73;5.13;;;;;;;;;;4926435;29;20206;-55
2022/06/29 01:00:16;;;;;;;5.20;4.70;;;;;;;;;;4906053;29;20487;-55
2022/06/29 01:02:42;;;;;;;5.47;4.97;;;;;;;;;;4916170;29;20547;-55
2022/06/29 01:05:09;;;;;;;5.93;5.33;;;;;;;;;;4910543;29;20436;-55
2022/06/29 01:07:35;;;;;;;5.33;4.83;;;;;;;;;;4915273;29;20983;-54
2022/06/29 01:10:01;;;;;;;4.97;4.43;;;;;;;;;;4907306;29;20459;-56
2022/06/29 01:12:29;;;;;;;6.07;5.47;;;;;;;;;;4896424;29;20818;-53
2022/06/29 01:14:55;;;;;;;7.03;5.20;;;;;;;;;;4922658;29;20437;-56
2022/06/29 01:17:22;;;;;;;5.10;4.60;;;;;;;;;;4926223;29;20503;-54
2022/06/29 01:19:48;;;;;;;9.93;6.10;;;;;;;;;;4920717;29;20998;-55
2022/06/29 01:22:17;;;;;;;6.07;4.80;;;;;;;;;;4900792;29;20472;-56
2022/06/29 01:24:46;;;;;;;5.70;5.20;;;;;;;;;;4922347;29;20278;-54
2022/06/29 01:27:15;;;;;;;5.97;5.47;;;;;;;;;;4916889;29;20477;-55
2022/06/29 01:29:41;;;;;;;6.10;5.50;;;;;;;;;;4919837;29;21018;-55
2022/06/29 01:32:07;;;;;;;5.07;4.63;;;;;;;;;;4911943;29;20471;-54
2022/06/29 01:34:33;;;;;;;6.17;5.63;;;;;;;;;;4921116;29;20905;-54
2022/06/29 01:36:59;;;;;;;5.60;5.10;;;;;;;;;;4906569;29;20465;-55
2022/06/29 01:39:26;;;;;;;5.97;5.43;;;;;;;;;;4930672;29;20443;-54
2022/06/29 01:41:51;;;;;;;6.60;5.17;;;;;;;;;;4902452;29;21030;-54
2022/06/29 01:44:18;;;;;;;5.57;4.97;;;;;;;;;;4925752;29;20543;-54
2022/06/29 01:46:44;;;;;;;8.00;5.07;;;;;;;;;;4878094;29;21430;-54
2022/06/29 01:49:10;;;;;;;6.33;5.73;;;;;;;;;;4928522;29;20459;-55
2022/06/29 01:51:36;;;;;;;7.40;5.90;;;;;;;;;;4904524;29;21376;-54
2022/06/29 01:54:02;;;;;;;5.50;4.93;;;;;;;;;;4926063;29;20462;-55
2022/06/29 01:56:28;;;;;;;6.23;5.73;;;;;;;;;;4901381;29;20541;-53
2022/06/29 01:58:54;;;;;;;6.23;5.67;;;;;;;;;;4930268;29;20461;-56
2022/06/29 02:01:20;;;;;;;6.20;5.60;;;;;;;;;;4904061;29;21017;-56
2022/06/29 02:03:48;;;;;;;6.10;5.40;;;;;;;;;;4931433;29;20483;-56
2022/06/29 02:06:23;;;;;;;5.70;5.00;;;;;;;;;;4905323;29;20502;-55
2022/06/29 02:08:49;;;;;;;5.70;5.20;;;;;;;;;;4927542;29;20455;-55
2022/06/29 02:11:15;;;;;;;6.67;6.07;;;;;;;;;;4904446;29;20482;-54
2022/06/29 02:13:41;;;;;;;5.97;5.37;;;;;;;;;;4930949;29;20483;-54
2022/06/29 02:16:09;;;;;;;6.40;5.60;;;;;;;;;;4915431;29;20507;-54
2022/06/29 02:18:35;;;;;;;7.13;6.00;;;;;;;;;;4937637;29;20961;-56
2022/06/29 02:21:01;;;;;;;6.20;5.47;;;;;;;;;;4876438;29;20475;-55
2022/06/29 02:23:27;;;;;;;5.90;5.30;;;;;;;;;;4926719;29;20570;-53
2022/06/29 02:25:54;;;;;;;6.53;5.93;;;;;;;;;;4929432;29;20443;-59
2022/06/29 02:28:20;;;;;;;6.20;5.60;;;;;;;;;;4930998;29;20443;-54
2022/06/29 02:36:16;;;;;;;6.20;5.50;;;;;;;;;;4924836;29;20458;-54
2022/06/29 02:38:49;;;;;;;6.60;5.37;;;;;;;;;;4930553;29;20452;-56
2022/06/29 02:41:18;;;;;;;6.23;5.70;;;;;;;;;;4905440;29;20194;-55
2022/06/29 02:43:48;;;;;;;5.93;5.37;;;;;;;;;;4929852;29;20493;-55
2022/06/29 02:46:14;;;;;;;6.40;5.90;;;;;;;;;;4924503;29;20447;-54
2022/06/29 02:48:40;;;;;;;6.00;5.50;;;;;;;;;;4928153;29;20443;-55
2022/06/29 02:51:06;;;;;;;7.63;5.73;;;;;;;;;;4859415;29;20439;-55
2022/06/29 02:53:38;;;;;;;5.80;5.30;;;;;;;;;;4929825;29;20457;-55
2022/06/29 02:56:04;;;;;;;8.20;6.90;;;;;;;;;;4917988;29;20427;-54
2022/06/29 02:58:37;;;;;;;6.53;5.97;;;;;;;;;;4924199;29;20546;-55
2022/06/29 03:01:03;;;;;;;6.57;5.97;;;;;;;;;;4896501;29;22609;-53
2022/06/29 03:03:29;;;;;;;6.30;5.70;;;;;;;;;;4922513;29;20484;-52
2022/06/29 03:05:55;;;;;;;7.83;5.60;;;;;;;;;;4924747;29;20444;-54
2022/06/29 03:08:21;;;;;;;7.73;5.10;;;;;;;;;;4927277;29;20439;-53
2022/06/29 03:10:49;;;;;;;7.20;6.30;;;;;;;;;;4899394;29;20917;-55
2022/06/29 03:13:15;;;;;;;6.27;5.67;;;;;;;;;;4927587;29;20203;-56
2022/06/29 03:15:41;;;;;;;6.50;5.90;;;;;;;;;;4923657;29;20452;-56
2022/06/29 03:18:07;;;;;;;6.93;6.23;;;;;;;;;;4927286;29;20653;-55
2022/06/29 03:20:35;;;;;;;6.73;6.03;;;;;;;;;;4917846;29;21160;-56
2022/06/29 03:23:01;;;;;;;6.23;5.60;;;;;;;;;;4918693;29;20491;-56
2022/06/29 03:25:28;;;;;;;5.97;5.43;;;;;;;;;;4892237;29;20597;-56
2022/06/29 03:27:54;;;;;;;6.67;6.03;;;;;;;;;;4906522;29;20268;-57
2022/06/29 03:30:37;;;;;;;6.77;6.17;;;;;;;;;;4916083;29;20559;-57
2022/06/29 03:33:10;;;;;;;6.20;5.70;;;;;;;;;;4915478;29;20486;-57
2022/06/29 03:35:36;;;;;;;7.00;6.13;;;;;;;;;;4914957;29;20452;-54
2022/06/29 03:38:02;;;;;;;6.70;5.87;;;;;;;;;;4925451;29;20446;-54
2022/06/29 03:40:28;;;;;;;7.67;6.30;;;;;;;;;;4917618;29;20558;-55
2022/06/29 03:42:55;;;;;;;6.20;5.57;;;;;;;;;;4914094;29;20860;-54
2022/06/29 03:45:35;;;;;;;7.20;6.50;;;;;;;;;;4920073;29;20448;-57
2022/06/29 03:48:01;;;;;;;9.03;6.30;;;;;;;;;;4916972;29;20973;-56
2022/06/29 03:50:27;;;;;;;7.27;6.07;;;;;;;;;;4919211;29;20514;-55
2022/06/29 03:52:57;;;;;;;7.00;6.30;;;;;;;;;;4921285;29;20443;-56
2022/06/29 03:55:36;;;;;;;6.50;5.90;;;;;;;;;;4917011;29;20191;-56
2022/06/29 03:58:03;;;;;;;6.80;5.70;;;;;;;;;;4915377;29;20849;-57
2022/06/29 04:00:30;;;;;;;7.50;6.70;;;;;;;;;;4896469;29;20435;-55
2022/06/29 04:02:56;;;;;;;7.33;6.60;;;;;;;;;;4903032;29;20842;-55
2022/06/29 04:05:27;;;;;;;6.20;5.43;;;;;;;;;;4919809;29;20424;-56
2022/06/29 04:07:54;;;;;;;10.10;6.57;;;;;;;;;;4902614;29;21615;-55
2022/06/29 04:10:20;;;;;;;7.70;7.07;;;;;;;;;;4918301;29;20814;-55
2022/06/29 04:12:46;;;;;;;7.60;6.90;;;;;;;;;;4913572;29;20563;-56
2022/06/29 04:15:12;;;;;;;7.17;6.47;;;;;;;;;;4920670;29;20437;-57
2022/06/29 04:17:51;;;;;;;7.87;7.10;;;;;;;;;;4913199;29;20515;-56
2022/06/29 04:23:04;;;;;;;8.07;7.27;;;;;;;;;;4902345;29;20598;-55
2022/06/29 04:25:30;;;;;;;6.60;6.00;;;;;;;;;;4923605;29;20535;-56
2022/06/29 04:27:56;;;;;;;8.07;6.13;;;;;;;;;;4914238;28;20682;-55
2022/06/29 04:30:22;;;;;;;6.20;5.60;;;;;;;;;;4921351;29;20451;-57
2022/06/29 04:32:51;;;;;;;7.17;6.13;;;;;;;;;;4923596;29;20503;-58
2022/06/29 04:35:21;;;;;;;8.20;6.07;;;;;;;;;;4873770;29;20448;-57
2022/06/29 04:37:48;;;;;;;5.70;5.20;;;;;;;;;;4921365;29;20439;-57
2022/06/29 04:40:15;;;;;;;7.17;6.47;;;;;;;;;;4894168;29;20455;-55
2022/06/29 04:42:41;;;;;;;6.80;6.20;;;;;;;;;;4920570;29;20582;-57
2022/06/29 04:46:19;;;;;;;6.90;5.67;;;;;;;;;;4912648;29;20922;-55
2022/06/29 04:47:54;;;;;;;6.70;6.10;;;;;;;;;;4919363;29;20427;-56
2022/06/29 04:50:24;;;;;;;6.37;5.40;;;;;;;;;;4897398;29;20444;-56
2022/06/29 04:52:50;;;;;;;6.27;5.77;;;;;;;;;;4921402;29;20451;-56
2022/06/29 04:55:16;;;;;;;7.63;6.80;;;;;;;;;;4913650;29;20533;-56
2022/06/29 04:58:04;;;;;;;6.67;5.97;;;;;;;;;;4904776;29;20960;-57
2022/06/29 05:00:33;;;;;;;6.30;5.80;;;;;;;;;;4911551;29;20469;-56
2022/06/29 05:03:16;;;;;;;6.17;5.57;;;;;;;;;;4913913;29;20915;-56
2022/06/29 05:05:47;;;;;;;6.90;6.30;;;;;;;;;;4915455;29;20983;-57
2022/06/29 05:08:14;;;;;;;7.00;6.30;;;;;;;;;;4893129;29;20459;-55
2022/06/29 05:10:40;;;;;;;7.90;6.03;;;;;;;;;;4916649;29;20455;-58
2022/06/29 05:13:09;;;;;;;6.70;6.10;;;;;;;;;;4904544;29;20456;-55
2022/06/29 05:15:37;;;;;;;6.10;5.50;;;;;;;;;;4923105;29;20913;-55
2022/06/29 05:18:03;;;;;;;6.97;6.27;;;;;;;;;;4887058;29;20444;-56
2022/06/29 05:20:29;;;;;;;7.33;6.63;;;;;;;;;;4920695;29;20459;-57
2022/06/29 05:22:55;;;;;;;6.53;5.80;;;;;;;;;;4891574;29;20821;-57
2022/06/29 05:25:22;;;;;;;6.33;5.73;;;;;;;;;;4918006;29;20926;-56
2022/06/29 05:27:48;;;;;;;7.03;6.13;;;;;;;;;;4904907;29;20469;-57
2022/06/29 05:30:14;;;;;;;7.07;6.23;;;;;;;;;;4926051;29;21016;-56
2022/06/29 05:32:40;;;;;;;7.63;6.97;;;;;;;;;;4904516;29;21244;-56
2022/06/29 05:35:09;;;;;;;7.80;7.20;;;;;;;;;;4928149;29;20442;-57
2022/06/29 05:38:04;;;;;;;6.33;5.73;;;;;;;;;;4924642;29;20455;-57
2022/06/29 05:41:02;;;;;;;6.47;5.87;;;;;;;;;;4904894;29;20454;-57
2022/06/29 05:43:33;;;;;;;6.80;6.10;;;;;;;;;;4916962;29;21159;-56
2022/06/29 05:45:59;;;;;;;7.33;6.30;;;;;;;;;;4896192;29;20471;-57
2022/06/29 05:48:25;;;;;;;6.50;5.70;;;;;;;;;;4926158;29;20880;-57
2022/06/29 05:51:01;;;;;;;10.50;6.17;;;;;;;;;;4914709;29;20554;-55
2022/06/29 05:53:53;;;;;;;7.60;6.87;;;;;;;;;;4929160;29;20484;-55
2022/06/29 05:56:19;;;;;;;7.83;7.10;;;;;;;;;;4913260;29;20448;-54
2022/06/29 05:58:46;;;;;;;6.70;6.00;;;;;;;;;;4926726;29;20433;-55
2022/06/29 06:01:30;;;;;;;8.30;7.50;;;;;;;;;;4915170;29;20571;-55
2022/06/29 06:04:00;;;;;;;7.30;6.37;;;;;;;;;;4918856;29;20495;-56
2022/06/29 06:06:56;;;;;;;7.67;6.43;;;;;;;;;;4925229;29;20451;-56
2022/06/29 06:09:26;;;;;;;6.97;6.37;;;;;;;;;;4931114;29;20436;-56
2022/06/29 06:12:06;;;;;;;8.60;7.50;;;;;;;;;;4917554;29;20479;-56
2022/06/29 06:14:50;;;;;;;7.70;6.30;;;;;;;;;;4928918;29;20428;-55
2022/06/29 06:17:16;;;;;;;7.13;6.50;;;;;;;;;;4895453;29;20476;-55
2022/06/29 06:19:42;;;;;;;7.63;6.73;;;;;;;;;;4930734;29;20869;-56
2022/06/29 06:22:08;;;;;;;6.73;6.13;;;;;;;;;;4923872;29;20542;-56
2022/06/29 06:24:34;;;;;;;7.50;6.13;;;;;;;;;;4934944;29;20901;-56
2022/06/29 06:27:01;;;;;;;5.70;5.20;;;;;;;;;;4908104;29;20481;-61
2022/06/29 06:29:41;;;;;;;6.00;5.50;;;;;;;;;;4933894;29;20499;-55
2022/06/29 06:32:08;;;;;;;6.33;5.73;;;;;;;;;;4907525;29;20486;-56
2022/06/29 06:34:34;;;;;;;5.93;5.33;;;;;;;;;;4927826;29;20458;-56
2022/06/29 06:37:01;;;;;;;7.10;6.40;;;;;;;;;;4924199;29;20440;-58
2022/06/29 06:39:28;;;;;;;7.43;6.80;;;;;;;;;;4923735;29;20486;-55
2022/06/29 06:41:57;;;;;;;8.93;6.07;;;;;;;;;;4917309;29;20439;-56
2022/06/29 06:44:22;;;;;;;7.70;6.23;;;;;;;;;;4923483;29;20491;-58
2022/06/29 06:46:56;;;;;;;6.60;6.00;;;;;;;;;;4904906;29;20750;-57
2022/06/29 06:49:25;;;;;;;6.93;6.23;;;;;;;;;;4920213;29;20299;-58
2022/06/29 06:52:01;;;;;;;6.53;5.23;;;;;;;;;;4925734;29;20483;-57
2022/06/29 06:54:30;;;;;;;5.93;5.43;;;;;;;;;;4921422;29;20527;-60
2022/06/29 06:57:16;;;;;;;5.90;5.40;;;;;;;;;;4929696;29;20440;-56
2022/06/29 06:59:53;;;;;;;5.40;4.90;;;;;;;;;;4917992;29;20707;-56
2022/06/29 07:02:20;;;;;;;7.17;6.50;;;;;;;;;;4910973;29;23376;-54
2022/06/29 07:04:53;;;;;;;6.03;4.90;;;;;;;;;;4927338;29;20459;-56
2022/06/29 07:07:26;;;;;;;6.73;5.53;;;;;;;;;;4924863;29;20460;-58
2022/06/29 07:09:55;;;;;;;6.50;5.63;;;;;;;;;;4934868;29;20524;-55
2022/06/29 07:12:32;;;;;;;5.90;5.40;;;;;;;;;;4930273;29;20452;-56
2022/06/29 07:15:00;;;;;;;6.43;5.30;;;;;;;;;;4925342;29;20532;-57
2022/06/29 07:17:58;;;;;;;5.90;5.40;;;;;;;;;;4923489;29;20915;-56
2022/06/29 07:20:30;;;;;;;6.87;5.63;;;;;;;;;;4928618;29;20531;-55
2022/06/29 07:22:56;;;;;;;5.20;4.80;;;;;;;;;;4912587;29;20510;-57
2022/06/29 07:25:29;;;;;;;8.10;6.13;;;;;;;;;;4932205;29;20432;-55
2022/06/29 07:27:55;;;;;;;7.13;6.00;;;;;;;;;;4922786;29;20468;-56
2022/06/29 07:30:24;;;;;;;5.83;5.33;;;;;;;;;;4924276;29;20456;-56
2022/06/29 07:32:55;;;;;;;6.53;5.97;;;;;;;;;;4920160;29;20475;-56
2022/06/29 07:35:26;;;;;;;8.80;5.37;;;;;;;;;;4924653;29;20447;-56
2022/06/29 07:37:54;;;;;;;5.87;5.27;;;;;;;;;;4910727;29;20462;-57
2022/06/29 07:40:21;;;;;;;6.50;5.60;;;;;;;;;;4928833;29;20451;-55
2022/06/29 07:42:48;;;;;;;6.37;5.77;;;;;;;;;;4928128;29;21482;-57
2022/06/29 07:45:14;;;;;;;6.40;5.80;;;;;;;;;;4934289;29;20449;-57
2022/06/29 07:47:45;;;;;;;6.10;5.50;;;;;;;;;;4920430;29;20439;-55
2022/06/29 07:50:13;;;;;;;7.80;6.40;;;;;;;;;;4930673;29;20494;-56
2022/06/29 07:52:48;;;;;;;6.83;5.63;;;;;;;;;;4921686;29;20458;-59
2022/06/29 07:55:18;;;;;;;6.73;6.03;;;;;;;;;;4924225;29;20448;-56
2022/06/29 07:57:44;;;;;;;6.53;5.97;;;;;;;;;;4906112;29;24661;-56
2022/06/29 08:00:11;;;;;;;14.50;6.40;;;;;;;;;;4925686;29;20533;-57
2022/06/29 08:02:36;;;;;;;6.90;6.17;;;;;;;;;;4929256;29;20463;-56
2022/06/29 08:05:03;;;;;;;7.83;6.30;;;;;;;;;;4926063;29;20444;-56
2022/06/29 08:07:35;;;;;;;11.20;6.90;;;;;;;;;;4909698;29;20306;-56
2022/06/29 08:10:22;;;;;;;7.70;7.00;;;;;;;;;;4927930;29;20451;-57
2022/06/29 08:12:48;;;;;;;10.40;6.57;;;;;;;;;;4915634;29;23619;-57
2022/06/29 08:15:17;;;;;;;8.50;7.70;;;;;;;;;;4929765;29;20448;-57
2022/06/29 08:17:44;;;;;;;7.67;6.93;;;;;;;;;;4906324;29;23102;-56
2022/06/29 08:20:10;;;;;;;6.97;6.37;;;;;;;;;;4926596;29;20447;-57
2022/06/29 08:22:36;;;;;;;7.53;6.87;;;;;;;;;;4902484;29;20566;-57
2022/06/29 08:25:02;;;;;;;9.40;8.37;;;;;;;;;;4891007;29;20475;-57
2022/06/29 08:27:34;;;;;;;7.70;7.00;;;;;;;;;;4927198;29;20910;-57
2022/06/29 08:30:01;;;;;;;7.00;6.30;;;;;;;;;;4913186;29;20439;-56
2022/06/29 08:32:35;;;;;;;11.63;7.97;;;;;;;;;;4915124;29;20443;-58
2022/06/29 08:35:14;;;;;;;7.93;7.13;;;;;;;;;;4914824;29;20525;-57
2022/06/29 08:37:59;;;;;;;7.43;6.83;;;;;;;;;;4920160;29;20450;-56
2022/06/29 08:40:32;;;;;;;7.77;6.97;;;;;;;;;;4905997;29;20486;-56
2022/06/29 08:42:58;;;;;;;8.67;7.70;;;;;;;;;;4928039;29;20488;-56
2022/06/29 08:45:27;;;;;;;8.53;7.67;;;;;;;;;;4909841;29;20447;-56
2022/06/29 08:47:57;;;;;;;9.07;7.17;;;;;;;;;;4926612;29;20443;-55
2022/06/29 08:50:23;;;;;;;8.53;7.70;;;;;;;;;;4901459;29;21024;-55
2022/06/29 08:52:53;;;;;;;8.13;7.13;;;;;;;;;;4926340;29;20467;-57
2022/06/29 08:55:21;;;;;;;10.90;8.10;;;;;;;;;;4927744;28;20443;-57
2022/06/29 08:57:48;;;;;;;12.50;7.77;;;;;;;;;;4919582;29;20448;-57
2022/06/29 09:00:14;;;;;;;8.20;7.50;;;;;;;;;;4900522;29;21410;-56
2022/06/29 09:02:51;;;;;;;8.30;7.60;;;;;;;;;;4933138;29;20474;-57
2022/06/29 09:05:21;;;;;;;8.50;7.70;;;;;;;;;;4901365;29;21104;-56
2022/06/29 09:07:47;;;;;;;7.70;7.00;;;;;;;;;;4924244;29;20467;-56
2022/06/29 09:10:18;;;;;;;7.10;6.50;;;;;;;;;;4891721;29;20542;-55
2022/06/29 09:12:46;;;;;;;8.30;7.60;;;;;;;;;;4927908;29;20456;-56
2022/06/29 09:15:12;;;;;;;7.20;6.50;;;;;;;;;;4910894;29;20436;-56
2022/06/29 09:17:53;;;;;;;7.93;7.13;;;;;;;;;;4927249;29;21197;-56
2022/06/29 09:20:20;;;;;;;8.63;6.70;;;;;;;;;;4907684;29;20977;-57
2022/06/29 09:22:55;;;;;;;7.10;6.30;;;;;;;;;;4920549;29;20476;-57
2022/06/29 09:25:24;;;;;;;7.17;6.57;;;;;;;;;;4917589;29;20436;-57
2022/06/29 09:27:57;;;;;;;7.20;6.50;;;;;;;;;;4925545;29;20437;-57
2022/06/29 09:30:28;;;;;;;7.30;6.60;;;;;;;;;;4890700;29;20514;-57
2022/06/29 09:33:04;;;;;;;7.37;6.60;;;;;;;;;;4917033;29;20482;-57
2022/06/29 09:35:30;;;;;;;8.03;7.23;;;;;;;;;;4888316;29;20541;-56
2022/06/29 09:38:15;;;;;;;7.53;6.73;;;;;;;;;;4923684;29;20443;-57
2022/06/29 09:41:10;;;;;;;7.13;6.43;;;;;;;;;;4908919;29;20617;-57
2022/06/29 09:43:42;;;;;;;7.50;6.70;;;;;;;;;;4929733;29;20487;-56
2022/06/29 09:46:12;;;;;;;7.43;6.30;;;;;;;;;;4911823;29;20444;-58
2022/06/29 09:48:41;;;;;;;6.87;6.27;;;;;;;;;;4931086;29;20537;-57
2022/06/29 09:54:01;;;;;;;8.73;6.60;;;;;;;;;;4934840;29;20494;-57
2022/06/29 09:56:36;;;;;;;7.07;6.47;;;;;;;;;;4912903;29;20459;-57
2022/06/29 10:05:01;;;;;;;8.30;7.00;;;;;;;;;;4917766;29;21042;-55
2022/06/29 10:07:31;;;;;;;6.90;6.20;;;;;;;;;;4924381;29;20444;-56
2022/06/29 10:10:08;;;;;;;6.30;5.70;;;;;;;;;;4919737;29;20875;-55
2022/06/29 10:15:44;;;;;;;7.10;6.40;;;;;;;;;;4902387;29;20446;-57
2022/06/29 10:18:34;;;;;;;8.70;6.07;;;;;;;;;;4923780;29;20483;-56
2022/06/29 10:21:03;;;;;;;6.60;6.00;;;;;;;;;;4924029;29;20515;-57
2022/06/29 10:23:45;;;;;;;8.83;5.93;;;;;;;;;;4921637;29;20488;-55
2022/06/29 10:26:32;;;;;;;7.30;6.13;;;;;;;;;;4920117;29;20443;-55
2022/06/29 10:29:11;;;;;;;8.17;6.10;;;;;;;;;;4913885;29;20451;-57
2022/06/29 10:31:53;;;;;;;9.37;6.93;;;;;;;;;;4908820;29;20451;-56
2022/06/29 10:34:37;;;;;;;7.00;6.30;;;;;;;;;;4909027;29;20446;-56
2022/06/29 10:37:04;;;;;;;6.87;6.17;;;;;;;;;;4925772;29;20452;-56
2022/06/29 10:39:42;;;;;;;7.33;5.30;;;;;;;;;;4900535;29;20487;-56
2022/06/29 10:45:17;;;;;;;6.40;5.90;;;;;;;;;;4907575;29;20534;-56
2022/06/29 10:47:55;;;;;;;5.80;5.30;;;;;;;;;;4919488;29;20452;-56
2022/06/29 10:50:36;;;;;;;6.47;5.87;;;;;;;;;;4924787;29;20447;-56
2022/06/29 10:53:10;;;;;;;6.30;5.70;;;;;;;;;;4924285;29;20536;-58
2022/06/29 10:55:41;;;;;;;8.90;5.50;;;;;;;;;;4899649;29;20806;-58
2022/06/29 10:58:08;;;;;;;6.30;5.80;;;;;;;;;;4924693;29;20435;-57
2022/06/29 11:00:38;;;;;;;6.27;5.67;;;;;;;;;;4919800;29;20443;-57
2022/06/29 11:03:09;;;;;;;6.03;5.43;;;;;;;;;;4915247;29;20472;-57
2022/06/29 11:05:35;;;;;;;9.33;5.30;;;;;;;;;;4914037;29;20439;-57
2022/06/29 11:13:28;;;;;;;6.00;5.50;;;;;;;;;;4922064;29;20844;-56
2022/06/29 11:15:55;;;;;;;7.53;5.47;;;;;;;;;;4911623;29;20452;-55
2022/06/29 11:18:23;;;;;;;8.80;5.67;;;;;;;;;;4917148;29;20440;-56
2022/06/29 11:20:50;;;;;;;5.70;5.20;;;;;;;;;;4923644;29;20957;-57
2022/06/29 11:23:18;;;;;;;5.43;4.93;;;;;;;;;;4912756;29;20551;-56
2022/06/29 11:25:46;;;;;;;6.30;5.80;;;;;;;;;;4888424;29;20448;-57
2022/06/29 11:28:12;;;;;;;5.67;5.20;;;;;;;;;;4923859;29;20428;-57
2022/06/29 11:30:38;;;;;;;6.53;5.30;;;;;;;;;;4905477;29;20458;-57
2022/06/29 11:33:13;;;;;;;7.00;5.10;;;;;;;;;;4917993;29;20892;-56
2022/06/29 11:35:44;;;;;;;5.40;4.73;;;;;;;;;;4912812;29;20495;-60
2022/06/29 11:38:11;;;;;;;5.33;4.83;;;;;;;;;;4916293;29;20467;-57
2022/06/29 11:40:37;;;;;;;4.90;4.50;;;;;;;;;;4906112;29;20459;-57
2022/06/29 11:43:07;;;;;;;5.60;5.07;;;;;;;;;;4929490;29;20928;-57
2022/06/29 11:45:51;;;;;;;10.20;5.07;;;;;;;;;;4899075;29;20424;-56
2022/06/29 11:48:19;;;;;;;5.47;4.70;;;;;;;;;;4894215;29;20599;-56
2022/06/29 11:50:46;;;;;;;4.20;3.80;;;;;;;;;;4922676;29;20478;-58
2022/06/29 11:53:13;;;;;;;5.00;4.03;;;;;;;;;;4910164;29;20436;-57
2022/06/29 11:55:43;;;;;;;5.13;4.67;;;;;;;;;;4920589;29;20448;-57
2022/06/29 11:58:14;;;;;;;5.23;4.43;;;;;;;;;;4898983;29;20494;-57
2022/06/29 12:00:44;;;;;;;7.10;4.43;;;;;;;;;;4920492;29;20499;-57
2022/06/29 12:03:13;;;;;;;5.10;4.60;;;;;;;;;;4904622;29;20487;-56
2022/06/29 12:05:54;;;;;;;5.33;4.83;;;;;;;;;;4915838;29;20456;-57
2022/06/29 12:08:40;;;;;;;5.53;4.40;;;;;;;;;;4905330;29;20443;-56
2022/06/29 12:11:09;;;;;;;5.43;4.00;;;;;;;;;;4923076;29;20447;-56
2022/06/29 12:13:36;;;;;;;4.67;4.27;;;;;;;;;;4910089;29;20456;-58
2022/06/29 12:16:11;;;;;;;6.60;4.50;;;;;;;;;;4905368;29;20445;-57
2022/06/29 12:18:48;;;;;;;6.97;4.20;;;;;;;;;;4908194;29;21290;-56
2022/06/29 12:21:54;;;;;;;4.50;4.10;;;;;;;;;;4924507;29;20446;-57
2022/06/29 12:24:39;;;;;;;5.57;4.20;;;;;;;;;;4922330;29;20463;-57
2022/06/29 12:27:08;;;;;;;4.50;3.80;;;;;;;;;;4918673;29;20424;-57
2022/06/29 12:29:39;;;;;;;5.13;4.63;;;;;;;;;;4923529;29;20522;-58
2022/06/29 12:32:36;;;;;;;4.70;4.30;;;;;;;;;;4913277;29;20805;-61
2022/06/29 12:35:05;;;;;;;5.40;4.10;;;;;;;;;;4926366;29;20424;-56
2022/06/29 12:37:34;;;;;;;5.30;4.43;;;;;;;;;;4919453;29;20448;-56
2022/06/29 12:40:02;;;;;;;4.80;4.20;;;;;;;;;;4920527;29;21299;-57
2022/06/29 12:42:37;;;;;;;5.93;4.70;;;;;;;;;;4906286;29;20933;-56
2022/06/29 12:45:04;;;;;;;5.10;4.23;;;;;;;;;;4914655;29;20886;-56
2022/06/29 12:47:30;;;;;;;4.80;4.40;;;;;;;;;;4904141;29;20966;-57
2022/06/29 12:49:57;;;;;;;4.03;3.60;;;;;;;;;;4924243;29;21017;-56
2022/06/29 12:52:23;;;;;;;4.87;4.47;;;;;;;;;;4906963;29;21070;-56
2022/06/29 12:54:49;;;;;;;6.30;4.03;;;;;;;;;;4926973;29;20836;-60
2022/06/29 12:57:18;;;;;;;4.33;3.43;;;;;;;;;;4901021;29;20480;-56
2022/06/29 12:59:45;;;;;;;5.33;4.07;;;;;;;;;;4918599;29;20873;-57
2022/06/29 13:02:21;;;;;;;6.00;4.43;;;;;;;;;;4921948;29;20447;-57
2022/06/29 13:04:48;;;;;;;4.80;4.30;;;;;;;;;;4921082;29;20910;-57
2022/06/29 13:07:17;;;;;;;4.20;3.77;;;;;;;;;;4894030;29;20440;-58
2022/06/29 13:09:52;;;;;;;4.13;3.73;;;;;;;;;;4923305;29;20751;-57
2022/06/29 13:12:18;;;;;;;5.33;4.23;;;;;;;;;;4906709;29;20542;-57
2022/06/29 13:14:44;;;;;;;4.93;4.53;;;;;;;;;;4922717;29;20452;-57
2022/06/29 13:17:11;;;;;;;6.47;5.00;;;;;;;;;;4918767;29;20940;-57
2022/06/29 13:19:37;;;;;;;6.43;4.67;;;;;;;;;;4925563;29;20207;-57
2022/06/29 13:25:03;;;;;;;5.67;5.03;;;;;;;;;;4895188;29;21228;-56
2022/06/29 13:27:37;;;;;;;6.20;5.33;;;;;;;;;;4900272;29;20448;-59
2022/06/29 13:30:09;;;;;;;5.70;5.20;;;;;;;;;;4914707;29;20507;-58
2022/06/29 13:32:38;;;;;;;5.30;4.07;;;;;;;;;;4910409;29;20466;-56
2022/06/29 13:35:06;;;;;;;6.23;5.30;;;;;;;;;;4920840;29;20846;-58
2022/06/29 13:38:02;;;;;;;4.80;4.40;;;;;;;;;;4919427;29;20451;-56
2022/06/29 13:40:36;;;;;;;5.93;5.10;;;;;;;;;;4914922;29;20501;-57
2022/06/29 13:43:03;;;;;;;5.57;5.07;;;;;;;;;;4911064;29;20499;-57
2022/06/29 13:45:30;;;;;;;5.60;4.40;;;;;;;;;;4922915;29;20448;-58
2022/06/29 13:47:56;;;;;;;5.47;4.53;;;;;;;;;;4904998;29;20452;-58
2022/06/29 13:50:23;;;;;;;4.80;4.40;;;;;;;;;;4921869;29;20458;-56
2022/06/29 13:52:56;;;;;;;5.53;4.70;;;;;;;;;;4904453;29;20267;-57
2022/06/29 13:55:25;;;;;;;5.40;4.90;;;;;;;;;;4926896;29;20447;-56
2022/06/29 13:57:51;;;;;;;6.00;4.60;;;;;;;;;;4911903;29;20455;-56
2022/06/29 14:00:19;;;;;;;6.33;4.50;;;;;;;;;;4920237;29;20467;-56
2022/06/29 14:02:47;;;;;;;6.77;5.67;;;;;;;;;;4904933;29;21235;-59
2022/06/29 14:05:24;;;;;;;5.63;5.03;;;;;;;;;;4919424;29;20510;-57
2022/06/29 14:07:56;;;;;;;5.43;4.70;;;;;;;;;;4894872;29;20462;-57
2022/06/29 14:10:23;;;;;;;5.93;5.10;;;;;;;;;;4918969;29;20455;-56
2022/06/29 14:12:57;;;;;;;5.30;4.70;;;;;;;;;;4906446;29;20511;-56
2022/06/29 14:15:27;;;;;;;5.07;4.60;;;;;;;;;;4912926;29;20443;-56
2022/06/29 14:17:53;;;;;;;5.20;4.70;;;;;;;;;;4906697;29;20538;-57
2022/06/29 14:20:19;;;;;;;5.90;4.77;;;;;;;;;;4922630;29;20440;-55
2022/06/29 14:22:51;;;;;;;5.27;4.80;;;;;;;;;;4913633;29;20471;-57
2022/06/29 14:25:32;;;;;;;6.40;4.77;;;;;;;;;;4920023;29;20846;-60
2022/06/29 14:28:07;;;;;;;5.23;4.67;;;;;;;;;;4921215;29;20498;-57
2022/06/29 14:31:02;;;;;;;7.37;4.60;;;;;;;;;;4907517;29;20449;-58
2022/06/29 14:33:31;;;;;;;5.60;5.10;;;;;;;;;;4898302;29;20450;-58
2022/06/29 14:35:57;;;;;;;4.80;4.33;;;;;;;;;;4917340;29;20455;-56
2022/06/29 14:38:24;;;;;;;7.90;4.70;;;;;;;;;;4904946;29;20436;-60
2022/06/29 14:40:50;;;;;;;5.90;5.40;;;;;;;;;;4900900;29;20196;-57
2022/06/29 14:43:19;;;;;;;10.97;5.97;;;;;;;;;;4923733;29;21000;-56
2022/06/29 14:45:45;;;;;;;5.40;4.87;;;;;;;;;;4903292;29;20200;-56
2022/06/29 14:48:18;;;;;;;6.47;5.60;;;;;;;;;;4917624;29;20442;-57
2022/06/29 14:50:45;;;;;;;6.37;4.70;;;;;;;;;;4901292;29;20303;-56
2022/06/29 14:53:11;;;;;;;5.90;5.30;;;;;;;;;;4922194;29;21597;-58
2022/06/29 14:55:37;;;;;;;5.77;5.27;;;;;;;;;;4903367;29;20517;-56
2022/06/29 14:58:03;;;;;;;9.33;6.73;;;;;;;;;;4923179;29;20575;-55
2022/06/29 15:00:36;;;;;;;6.07;5.40;;;;;;;;;;4903146;29;22537;-58
2022/06/29 15:03:02;;;;;;;7.97;4.90;;;;;;;;;;4911858;29;20483;-59
2022/06/29 15:08:34;;;;;;;8.30;5.60;;;;;;;;;;4919040;29;20199;-56
2022/06/29 15:11:37;;;;;;;5.23;4.63;;;;;;;;;;4921388;29;20547;-57
2022/06/29 15:14:05;;;;;;;6.30;5.70;;;;;;;;;;4925733;29;20436;-57
2022/06/29 15:16:39;;;;;;;6.93;5.60;;;;;;;;;;4897228;29;20444;-58
2022/06/29 15:19:11;;;;;;;5.60;5.10;;;;;;;;;;4921022;29;20438;-57
2022/06/29 15:21:43;;;;;;;6.77;5.60;;;;;;;;;;4910801;29;20540;-57
2022/06/29 15:24:10;;;;;;;5.50;5.00;;;;;;;;;;4919919;29;20483;-57
2022/06/29 15:26:36;;;;;;;5.90;5.40;;;;;;;;;;4892585;29;22027;-55
2022/06/29 15:29:02;;;;;;;6.23;5.70;;;;;;;;;;4927607;29;20930;-56
2022/06/29 15:31:35;;;;;;;7.77;5.70;;;;;;;;;;4910364;29;20490;-57
2022/06/29 15:39:31;;;;;;;8.00;5.90;;;;;;;;;;4929455;29;20486;-57
2022/06/29 15:42:06;;;;;;;6.00;5.30;;;;;;;;;;4916307;29;20463;-58